sensor_id;sensor_type;location;lat;lon;timestamp;P1;durP1;ratioP1;P2;durP2;ratioP2
37431;SDS011;23292;51.300;6.252;2022-12-07T00:01:28;36.42;;;18.88;;
37431;SDS011;23292;51.300;6.252;2022-12-07T00:03:58;31.80;;;18.27;;
37431;SDS011;23292;51.300;6.252;2022-12-07T00:06:35;32.45;;;19.42;;
37431;SDS011;23292;51.300;6.252;2022-12-07T00:09:04;42.40;;;20.20;;
37431;SDS011;23292;51.300;6.252;2022-12-07T00:11:32;32.33;;;19.42;;
37431;SDS011;23292;51.300;6.252;2022-12-07T00:14:00;37.20;;;20.58;;
37431;SDS011;23292;51.300;6.252;2022-12-07T00:16:29;37.05;;;20.83;;
37431;SDS011;23292;51.300;6.252;2022-12-07T00:18:58;36.60;;;21.05;;
37431;SDS011;23292;51.300;6.252;2022-12-07T00:21:26;37.67;;;20.88;;
37431;SDS011;23292;51.300;6.252;2022-12-07T00:23:55;38.58;;;21.30;;
37431;SDS011;23292;51.300;6.252;2022-12-07T00:28:52;30.67;;;20.45;;
37431;SDS011;23292;51.300;6.252;2022-12-07T00:31:25;36.05;;;20.67;;
37431;SDS011;23292;51.300;6.252;2022-12-07T00:33:53;34.58;;;21.30;;
37431;SDS011;23292;51.300;6.252;2022-12-07T00:36:21;34.00;;;20.45;;
37431;SDS011;23292;51.300;6.252;2022-12-07T00:38:53;35.67;;;20.08;;
37431;SDS011;23292;51.300;6.252;2022-12-07T00:41:21;36.53;;;20.45;;
37431;SDS011;23292;51.300;6.252;2022-12-07T00:43:49;35.75;;;20.42;;
37431;SDS011;23292;51.300;6.252;2022-12-07T00:46:17;36.53;;;21.17;;
37431;SDS011;23292;51.300;6.252;2022-12-07T00:48:45;34.58;;;19.95;;
37431;SDS011;23292;51.300;6.252;2022-12-07T00:51:13;35.75;;;20.15;;
37431;SDS011;23292;51.300;6.252;2022-12-07T00:53:42;31.70;;;19.77;;
37431;SDS011;23292;51.300;6.252;2022-12-07T00:56:09;32.67;;;20.02;;
37431;SDS011;23292;51.300;6.252;2022-12-07T00:58:39;33.95;;;21.63;;
37431;SDS011;23292;51.300;6.252;2022-12-07T01:01:06;41.97;;;21.25;;
37431;SDS011;23292;51.300;6.252;2022-12-07T01:03:34;32.50;;;20.45;;
37431;SDS011;23292;51.300;6.252;2022-12-07T01:06:01;35.40;;;21.17;;
37431;SDS011;23292;51.300;6.252;2022-12-07T01:08:29;33.60;;;21.02;;
37431;SDS011;23292;51.300;6.252;2022-12-07T01:11:03;42.45;;;22.80;;
37431;SDS011;23292;51.300;6.252;2022-12-07T01:13:32;36.15;;;21.42;;
37431;SDS011;23292;51.300;6.252;2022-12-07T01:16:01;30.13;;;19.83;;
37431;SDS011;23292;51.300;6.252;2022-12-07T01:18:30;29.00;;;19.50;;
37431;SDS011;23292;51.300;6.252;2022-12-07T01:21:03;30.92;;;20.38;;
37431;SDS011;23292;51.300;6.252;2022-12-07T01:23:31;36.08;;;19.88;;
37431;SDS011;23292;51.300;6.252;2022-12-07T01:25:59;32.88;;;20.92;;
37431;SDS011;23292;51.300;6.252;2022-12-07T01:28:27;39.10;;;21.88;;
37431;SDS011;23292;51.300;6.252;2022-12-07T01:30:54;33.78;;;21.38;;
37431;SDS011;23292;51.300;6.252;2022-12-07T01:33:22;37.53;;;22.15;;
37431;SDS011;23292;51.300;6.252;2022-12-07T01:35:49;31.38;;;19.67;;
37431;SDS011;23292;51.300;6.252;2022-12-07T01:38:16;34.33;;;20.65;;
37431;SDS011;23292;51.300;6.252;2022-12-07T01:40:42;34.50;;;21.80;;
37431;SDS011;23292;51.300;6.252;2022-12-07T01:43:14;35.45;;;21.25;;
37431;SDS011;23292;51.300;6.252;2022-12-07T01:45:44;37.72;;;21.45;;
37431;SDS011;23292;51.300;6.252;2022-12-07T01:48:12;32.42;;;20.98;;
37431;SDS011;23292;51.300;6.252;2022-12-07T01:50:43;38.20;;;22.05;;
37431;SDS011;23292;51.300;6.252;2022-12-07T01:53:11;35.13;;;21.23;;
37431;SDS011;23292;51.300;6.252;2022-12-07T01:55:40;37.90;;;21.52;;
37431;SDS011;23292;51.300;6.252;2022-12-07T01:58:09;37.90;;;21.10;;
37431;SDS011;23292;51.300;6.252;2022-12-07T02:00:38;42.20;;;22.38;;
37431;SDS011;23292;51.300;6.252;2022-12-07T02:05:35;33.00;;;20.60;;
37431;SDS011;23292;51.300;6.252;2022-12-07T02:08:04;37.83;;;21.90;;
37431;SDS011;23292;51.300;6.252;2022-12-07T02:10:31;39.30;;;22.33;;
37431;SDS011;23292;51.300;6.252;2022-12-07T02:13:02;36.47;;;22.63;;
37431;SDS011;23292;51.300;6.252;2022-12-07T02:15:44;40.63;;;21.77;;
37431;SDS011;23292;51.300;6.252;2022-12-07T02:24:31;36.15;;;22.40;;
37431;SDS011;23292;51.300;6.252;2022-12-07T02:35:42;31.88;;;21.10;;
37431;SDS011;23292;51.300;6.252;2022-12-07T02:43:27;32.08;;;19.90;;
37431;SDS011;23292;51.300;6.252;2022-12-07T02:46:03;35.33;;;19.58;;
37431;SDS011;23292;51.300;6.252;2022-12-07T02:48:34;35.97;;;19.55;;
37431;SDS011;23292;51.300;6.252;2022-12-07T02:51:03;32.83;;;19.23;;
37431;SDS011;23292;51.300;6.252;2022-12-07T02:53:35;33.00;;;18.83;;
37431;SDS011;23292;51.300;6.252;2022-12-07T02:59:10;35.00;;;19.23;;
37431;SDS011;23292;51.300;6.252;2022-12-07T03:05:37;35.80;;;18.83;;
37431;SDS011;23292;51.300;6.252;2022-12-07T03:08:11;29.55;;;18.95;;
37431;SDS011;23292;51.300;6.252;2022-12-07T03:13:35;31.77;;;19.10;;
37431;SDS011;23292;51.300;6.252;2022-12-07T03:18:50;32.05;;;18.10;;
37431;SDS011;23292;51.300;6.252;2022-12-07T03:21:32;31.20;;;20.55;;
37431;SDS011;23292;51.300;6.252;2022-12-07T03:24:04;33.10;;;19.35;;
37431;SDS011;23292;51.300;6.252;2022-12-07T03:26:36;36.70;;;19.25;;
37431;SDS011;23292;51.300;6.252;2022-12-07T03:29:20;33.42;;;17.73;;
37431;SDS011;23292;51.300;6.252;2022-12-07T03:31:54;30.70;;;17.35;;
37431;SDS011;23292;51.300;6.252;2022-12-07T03:34:47;26.55;;;16.33;;
37431;SDS011;23292;51.300;6.252;2022-12-07T03:37:26;26.00;;;15.90;;
37431;SDS011;23292;51.300;6.252;2022-12-07T03:42:40;32.20;;;15.32;;
37431;SDS011;23292;51.300;6.252;2022-12-07T03:45:07;25.30;;;15.55;;
37431;SDS011;23292;51.300;6.252;2022-12-07T03:50:38;24.55;;;15.80;;
37431;SDS011;23292;51.300;6.252;2022-12-07T03:53:18;26.95;;;16.33;;
37431;SDS011;23292;51.300;6.252;2022-12-07T03:55:48;29.40;;;15.73;;
37431;SDS011;23292;51.300;6.252;2022-12-07T03:58:16;29.35;;;16.77;;
37431;SDS011;23292;51.300;6.252;2022-12-07T04:00:46;30.23;;;16.25;;
37431;SDS011;23292;51.300;6.252;2022-12-07T04:03:14;29.38;;;15.73;;
37431;SDS011;23292;51.300;6.252;2022-12-07T04:05:42;28.60;;;15.57;;
37431;SDS011;23292;51.300;6.252;2022-12-07T04:08:09;29.33;;;16.75;;
37431;SDS011;23292;51.300;6.252;2022-12-07T04:10:36;29.90;;;17.63;;
37431;SDS011;23292;51.300;6.252;2022-12-07T04:13:03;27.40;;;17.20;;
37431;SDS011;23292;51.300;6.252;2022-12-07T04:15:30;30.75;;;16.65;;
37431;SDS011;23292;51.300;6.252;2022-12-07T04:17:56;34.90;;;18.33;;
37431;SDS011;23292;51.300;6.252;2022-12-07T04:20:23;33.95;;;17.83;;
37431;SDS011;23292;51.300;6.252;2022-12-07T04:22:50;34.60;;;18.50;;
37431;SDS011;23292;51.300;6.252;2022-12-07T04:25:17;36.38;;;18.88;;
37431;SDS011;23292;51.300;6.252;2022-12-07T04:27:43;32.83;;;18.02;;
37431;SDS011;23292;51.300;6.252;2022-12-07T04:30:10;33.55;;;18.17;;
37431;SDS011;23292;51.300;6.252;2022-12-07T04:32:37;29.00;;;17.58;;
37431;SDS011;23292;51.300;6.252;2022-12-07T04:35:04;31.80;;;18.17;;
37431;SDS011;23292;51.300;6.252;2022-12-07T04:37:31;30.58;;;17.10;;
37431;SDS011;23292;51.300;6.252;2022-12-07T04:39:57;29.13;;;16.63;;
37431;SDS011;23292;51.300;6.252;2022-12-07T04:42:25;26.35;;;15.57;;
37431;SDS011;23292;51.300;6.252;2022-12-07T04:44:51;29.55;;;16.90;;
37431;SDS011;23292;51.300;6.252;2022-12-07T04:47:18;31.77;;;16.85;;
37431;SDS011;23292;51.300;6.252;2022-12-07T04:49:45;24.27;;;15.25;;
37431;SDS011;23292;51.300;6.252;2022-12-07T04:52:11;26.40;;;15.65;;
37431;SDS011;23292;51.300;6.252;2022-12-07T04:54:38;26.35;;;16.25;;
37431;SDS011;23292;51.300;6.252;2022-12-07T04:57:05;23.58;;;13.82;;
37431;SDS011;23292;51.300;6.252;2022-12-07T04:59:32;28.05;;;14.65;;
37431;SDS011;23292;51.300;6.252;2022-12-07T05:01:58;30.02;;;15.52;;
37431;SDS011;23292;51.300;6.252;2022-12-07T05:04:25;28.08;;;15.38;;
37431;SDS011;23292;51.300;6.252;2022-12-07T05:06:52;30.27;;;16.25;;
37431;SDS011;23292;51.300;6.252;2022-12-07T05:09:18;28.60;;;15.23;;
37431;SDS011;23292;51.300;6.252;2022-12-07T05:11:45;35.13;;;17.33;;
37431;SDS011;23292;51.300;6.252;2022-12-07T05:16:43;24.42;;;14.43;;
37431;SDS011;23292;51.300;6.252;2022-12-07T05:19:11;27.05;;;15.55;;
37431;SDS011;23292;51.300;6.252;2022-12-07T05:21:38;28.08;;;15.40;;
37431;SDS011;23292;51.300;6.252;2022-12-07T05:24:06;30.48;;;15.65;;
37431;SDS011;23292;51.300;6.252;2022-12-07T05:26:33;30.88;;;15.85;;
37431;SDS011;23292;51.300;6.252;2022-12-07T05:29:00;32.40;;;15.50;;
37431;SDS011;23292;51.300;6.252;2022-12-07T05:31:27;29.88;;;15.20;;
37431;SDS011;23292;51.300;6.252;2022-12-07T05:33:54;27.55;;;16.70;;
37431;SDS011;23292;51.300;6.252;2022-12-07T05:36:20;28.17;;;16.10;;
37431;SDS011;23292;51.300;6.252;2022-12-07T05:38:47;31.15;;;16.20;;
37431;SDS011;23292;51.300;6.252;2022-12-07T05:41:15;28.52;;;15.55;;
37431;SDS011;23292;51.300;6.252;2022-12-07T05:44:02;24.27;;;13.85;;
37431;SDS011;23292;51.300;6.252;2022-12-07T05:46:29;27.17;;;15.10;;
37431;SDS011;23292;51.300;6.252;2022-12-07T05:48:56;35.95;;;16.60;;
37431;SDS011;23292;51.300;6.252;2022-12-07T05:51:22;31.70;;;15.05;;
37431;SDS011;23292;51.300;6.252;2022-12-07T05:53:49;27.60;;;15.35;;
37431;SDS011;23292;51.300;6.252;2022-12-07T05:56:16;24.05;;;14.48;;
37431;SDS011;23292;51.300;6.252;2022-12-07T05:58:43;25.58;;;14.57;;
37431;SDS011;23292;51.300;6.252;2022-12-07T06:01:28;29.13;;;13.40;;
37431;SDS011;23292;51.300;6.252;2022-12-07T06:03:55;27.08;;;14.43;;
37431;SDS011;23292;51.300;6.252;2022-12-07T06:06:22;23.13;;;12.95;;
37431;SDS011;23292;51.300;6.252;2022-12-07T06:08:48;25.95;;;12.57;;
37431;SDS011;23292;51.300;6.252;2022-12-07T06:11:15;26.85;;;13.25;;
37431;SDS011;23292;51.300;6.252;2022-12-07T06:14:01;20.85;;;12.23;;
37431;SDS011;23292;51.300;6.252;2022-12-07T06:16:27;24.38;;;12.73;;
37431;SDS011;23292;51.300;6.252;2022-12-07T06:18:54;24.00;;;12.25;;
37431;SDS011;23292;51.300;6.252;2022-12-07T06:21:21;20.00;;;11.52;;
37431;SDS011;23292;51.300;6.252;2022-12-07T06:23:47;23.73;;;12.55;;
37431;SDS011;23292;51.300;6.252;2022-12-07T06:26:14;21.63;;;11.30;;
37431;SDS011;23292;51.300;6.252;2022-12-07T06:28:41;22.27;;;10.38;;
37431;SDS011;23292;51.300;6.252;2022-12-07T06:31:08;18.85;;;10.50;;
37431;SDS011;23292;51.300;6.252;2022-12-07T06:33:39;18.30;;;9.50;;
37431;SDS011;23292;51.300;6.252;2022-12-07T06:36:07;16.13;;;9.95;;
37431;SDS011;23292;51.300;6.252;2022-12-07T06:38:34;23.50;;;9.90;;
37431;SDS011;23292;51.300;6.252;2022-12-07T06:41:01;18.27;;;10.18;;
37431;SDS011;23292;51.300;6.252;2022-12-07T06:43:28;18.50;;;10.63;;
37431;SDS011;23292;51.300;6.252;2022-12-07T06:45:55;22.75;;;10.38;;
37431;SDS011;23292;51.300;6.252;2022-12-07T06:48:22;17.90;;;10.07;;
37431;SDS011;23292;51.300;6.252;2022-12-07T06:50:49;20.80;;;10.77;;
37431;SDS011;23292;51.300;6.252;2022-12-07T06:53:20;25.38;;;11.52;;
37431;SDS011;23292;51.300;6.252;2022-12-07T06:55:47;18.92;;;10.25;;
37431;SDS011;23292;51.300;6.252;2022-12-07T06:58:13;22.50;;;11.18;;
37431;SDS011;23292;51.300;6.252;2022-12-07T07:00:40;19.65;;;12.18;;
37431;SDS011;23292;51.300;6.252;2022-12-07T07:03:07;19.73;;;11.25;;
37431;SDS011;23292;51.300;6.252;2022-12-07T07:05:34;26.00;;;11.93;;
37431;SDS011;23292;51.300;6.252;2022-12-07T07:08:01;23.73;;;11.20;;
37431;SDS011;23292;51.300;6.252;2022-12-07T07:10:48;21.88;;;12.23;;
37431;SDS011;23292;51.300;6.252;2022-12-07T07:13:15;20.95;;;10.52;;
37431;SDS011;23292;51.300;6.252;2022-12-07T07:15:42;27.42;;;13.25;;
37431;SDS011;23292;51.300;6.252;2022-12-07T07:18:09;22.40;;;12.18;;
37431;SDS011;23292;51.300;6.252;2022-12-07T07:20:35;19.65;;;11.85;;
37431;SDS011;23292;51.300;6.252;2022-12-07T07:23:02;25.63;;;12.70;;
37431;SDS011;23292;51.300;6.252;2022-12-07T07:25:29;21.80;;;12.48;;
37431;SDS011;23292;51.300;6.252;2022-12-07T07:27:56;28.95;;;12.93;;
37431;SDS011;23292;51.300;6.252;2022-12-07T07:30:23;23.92;;;12.77;;
37431;SDS011;23292;51.300;6.252;2022-12-07T07:32:50;23.83;;;12.45;;
37431;SDS011;23292;51.300;6.252;2022-12-07T07:35:17;23.60;;;12.95;;
37431;SDS011;23292;51.300;6.252;2022-12-07T07:37:44;24.73;;;12.70;;
37431;SDS011;23292;51.300;6.252;2022-12-07T07:40:10;22.55;;;12.77;;
37431;SDS011;23292;51.300;6.252;2022-12-07T07:42:37;25.65;;;13.75;;
37431;SDS011;23292;51.300;6.252;2022-12-07T07:45:04;28.55;;;13.75;;
37431;SDS011;23292;51.300;6.252;2022-12-07T07:47:31;27.55;;;14.18;;
37431;SDS011;23292;51.300;6.252;2022-12-07T07:49:58;27.40;;;15.65;;
37431;SDS011;23292;51.300;6.252;2022-12-07T07:52:25;32.72;;;17.38;;
37431;SDS011;23292;51.300;6.252;2022-12-07T07:54:51;29.20;;;16.08;;
37431;SDS011;23292;51.300;6.252;2022-12-07T07:57:18;27.48;;;15.98;;
37431;SDS011;23292;51.300;6.252;2022-12-07T07:59:45;29.58;;;16.20;;
37431;SDS011;23292;51.300;6.252;2022-12-07T08:02:16;33.83;;;17.25;;
37431;SDS011;23292;51.300;6.252;2022-12-07T08:04:44;29.80;;;16.60;;
37431;SDS011;23292;51.300;6.252;2022-12-07T08:07:12;29.95;;;16.05;;
37431;SDS011;23292;51.300;6.252;2022-12-07T08:09:39;31.15;;;16.75;;
37431;SDS011;23292;51.300;6.252;2022-12-07T08:12:06;30.25;;;16.33;;
37431;SDS011;23292;51.300;6.252;2022-12-07T08:14:34;31.50;;;16.92;;
37431;SDS011;23292;51.300;6.252;2022-12-07T08:17:01;31.63;;;17.13;;
37431;SDS011;23292;51.300;6.252;2022-12-07T08:19:27;27.73;;;15.95;;
37431;SDS011;23292;51.300;6.252;2022-12-07T08:21:54;32.35;;;16.25;;
37431;SDS011;23292;51.300;6.252;2022-12-07T08:24:22;24.65;;;14.40;;
37431;SDS011;23292;51.300;6.252;2022-12-07T08:26:49;29.67;;;15.85;;
37431;SDS011;23292;51.300;6.252;2022-12-07T08:29:16;27.00;;;15.05;;
37431;SDS011;23292;51.300;6.252;2022-12-07T08:31:43;30.25;;;14.57;;
37431;SDS011;23292;51.300;6.252;2022-12-07T08:34:10;36.90;;;16.75;;
37431;SDS011;23292;51.300;6.252;2022-12-07T08:36:37;31.55;;;16.52;;
37431;SDS011;23292;51.300;6.252;2022-12-07T08:39:04;32.08;;;17.02;;
37431;SDS011;23292;51.300;6.252;2022-12-07T08:41:51;31.85;;;17.67;;
37431;SDS011;23292;51.300;6.252;2022-12-07T08:44:17;29.08;;;16.27;;
37431;SDS011;23292;51.300;6.252;2022-12-07T08:46:45;32.70;;;16.50;;
37431;SDS011;23292;51.300;6.252;2022-12-07T08:49:26;31.75;;;15.63;;
37431;SDS011;23292;51.300;6.252;2022-12-07T08:51:59;33.83;;;15.18;;
37431;SDS011;23292;51.300;6.252;2022-12-07T08:54:26;30.42;;;15.75;;
37431;SDS011;23292;51.300;6.252;2022-12-07T08:56:54;30.23;;;16.75;;
37431;SDS011;23292;51.300;6.252;2022-12-07T08:59:25;31.92;;;17.25;;
37431;SDS011;23292;51.300;6.252;2022-12-07T09:01:52;33.97;;;16.52;;
37431;SDS011;23292;51.300;6.252;2022-12-07T09:04:19;32.47;;;16.35;;
37431;SDS011;23292;51.300;6.252;2022-12-07T09:06:46;31.58;;;16.88;;
37431;SDS011;23292;51.300;6.252;2022-12-07T09:09:14;37.03;;;17.67;;
37431;SDS011;23292;51.300;6.252;2022-12-07T09:11:41;33.40;;;16.50;;
37431;SDS011;23292;51.300;6.252;2022-12-07T09:14:08;28.92;;;16.85;;
37431;SDS011;23292;51.300;6.252;2022-12-07T09:16:35;32.63;;;16.83;;
37431;SDS011;23292;51.300;6.252;2022-12-07T09:19:02;27.40;;;14.30;;
37431;SDS011;23292;51.300;6.252;2022-12-07T09:21:28;25.25;;;14.40;;
37431;SDS011;23292;51.300;6.252;2022-12-07T09:23:55;26.98;;;13.10;;
37431;SDS011;23292;51.300;6.252;2022-12-07T09:26:22;26.13;;;14.43;;
37431;SDS011;23292;51.300;6.252;2022-12-07T09:28:49;22.08;;;12.18;;
37431;SDS011;23292;51.300;6.252;2022-12-07T09:31:15;21.08;;;11.18;;
37431;SDS011;23292;51.300;6.252;2022-12-07T09:33:55;22.63;;;11.65;;
37431;SDS011;23292;51.300;6.252;2022-12-07T09:36:26;24.00;;;12.73;;
37431;SDS011;23292;51.300;6.252;2022-12-07T09:38:54;25.10;;;11.68;;
37431;SDS011;23292;51.300;6.252;2022-12-07T09:41:21;22.55;;;11.77;;
37431;SDS011;23292;51.300;6.252;2022-12-07T09:43:50;24.08;;;11.95;;
37431;SDS011;23292;51.300;6.252;2022-12-07T09:46:18;23.10;;;11.13;;
37431;SDS011;23292;51.300;6.252;2022-12-07T09:48:46;21.02;;;10.60;;
37431;SDS011;23292;51.300;6.252;2022-12-07T09:51:17;18.20;;;11.00;;
37431;SDS011;23292;51.300;6.252;2022-12-07T09:53:50;23.10;;;13.15;;
37431;SDS011;23292;51.300;6.252;2022-12-07T09:56:19;16.73;;;10.23;;
37431;SDS011;23292;51.300;6.252;2022-12-07T09:58:47;21.92;;;10.07;;
37431;SDS011;23292;51.300;6.252;2022-12-07T10:01:15;13.90;;;8.70;;
37431;SDS011;23292;51.300;6.252;2022-12-07T10:03:51;21.98;;;9.48;;
37431;SDS011;23292;51.300;6.252;2022-12-07T10:06:20;20.10;;;9.55;;
37431;SDS011;23292;51.300;6.252;2022-12-07T10:08:47;16.02;;;9.18;;
37431;SDS011;23292;51.300;6.252;2022-12-07T10:11:14;16.55;;;9.38;;
37431;SDS011;23292;51.300;6.252;2022-12-07T10:13:43;15.73;;;9.20;;
37431;SDS011;23292;51.300;6.252;2022-12-07T10:19:03;15.00;;;8.43;;
37431;SDS011;23292;51.300;6.252;2022-12-07T10:21:59;20.77;;;8.30;;
37431;SDS011;23292;51.300;6.252;2022-12-07T10:24:26;16.90;;;7.75;;
37431;SDS011;23292;51.300;6.252;2022-12-07T10:26:53;20.55;;;8.10;;
37431;SDS011;23292;51.300;6.252;2022-12-07T10:29:21;13.45;;;8.05;;
37431;SDS011;23292;51.300;6.252;2022-12-07T10:31:58;17.95;;;7.97;;
37431;SDS011;23292;51.300;6.252;2022-12-07T10:34:34;16.17;;;8.63;;
37431;SDS011;23292;51.300;6.252;2022-12-07T10:42:17;14.18;;;8.75;;
37431;SDS011;23292;51.300;6.252;2022-12-07T10:44:48;16.58;;;8.23;;
37431;SDS011;23292;51.300;6.252;2022-12-07T10:49:55;14.48;;;8.38;;
37431;SDS011;23292;51.300;6.252;2022-12-07T10:57:53;21.25;;;8.07;;
37431;SDS011;23292;51.300;6.252;2022-12-07T11:00:32;13.82;;;7.10;;
37431;SDS011;23292;51.300;6.252;2022-12-07T11:03:17;21.88;;;7.63;;
37431;SDS011;23292;51.300;6.252;2022-12-07T11:11:40;18.55;;;8.05;;
37431;SDS011;23292;51.300;6.252;2022-12-07T11:17:04;17.90;;;8.40;;
37431;SDS011;23292;51.300;6.252;2022-12-07T11:22:20;16.38;;;8.57;;
37431;SDS011;23292;51.300;6.252;2022-12-07T11:24:57;21.92;;;9.38;;
37431;SDS011;23292;51.300;6.252;2022-12-07T11:33:53;15.63;;;7.25;;
37431;SDS011;23292;51.300;6.252;2022-12-07T11:36:35;16.08;;;7.93;;
37431;SDS011;23292;51.300;6.252;2022-12-07T11:39:30;16.30;;;7.78;;
37431;SDS011;23292;51.300;6.252;2022-12-07T11:42:06;13.65;;;7.18;;
37431;SDS011;23292;51.300;6.252;2022-12-07T11:47:17;23.13;;;7.72;;
37431;SDS011;23292;51.300;6.252;2022-12-07T11:49:58;20.45;;;8.15;;
37431;SDS011;23292;51.300;6.252;2022-12-07T11:55:27;18.48;;;7.25;;
37431;SDS011;23292;51.300;6.252;2022-12-07T11:58:22;18.10;;;7.28;;
37431;SDS011;23292;51.300;6.252;2022-12-07T12:03:46;15.75;;;7.00;;
37431;SDS011;23292;51.300;6.252;2022-12-07T12:06:19;15.50;;;5.78;;
37431;SDS011;23292;51.300;6.252;2022-12-07T12:09:03;18.20;;;6.40;;
37431;SDS011;23292;51.300;6.252;2022-12-07T12:15:16;14.10;;;5.15;;
37431;SDS011;23292;51.300;6.252;2022-12-07T12:20:44;8.82;;;4.40;;
37431;SDS011;23292;51.300;6.252;2022-12-07T12:23:24;16.48;;;4.38;;
37431;SDS011;23292;51.300;6.252;2022-12-07T12:26:04;9.63;;;4.22;;
37431;SDS011;23292;51.300;6.252;2022-12-07T12:33:58;18.17;;;4.35;;
37431;SDS011;23292;51.300;6.252;2022-12-07T12:47:02;11.98;;;3.38;;
37431;SDS011;23292;51.300;6.252;2022-12-07T12:49:37;13.15;;;3.38;;
37431;SDS011;23292;51.300;6.252;2022-12-07T12:57:36;11.75;;;2.67;;
37431;SDS011;23292;51.300;6.252;2022-12-07T13:05:21;9.15;;;3.40;;
37431;SDS011;23292;51.300;6.252;2022-12-07T13:07:51;10.25;;;3.78;;
37431;SDS011;23292;51.300;6.252;2022-12-07T13:13:40;10.82;;;3.63;;
37431;SDS011;23292;51.300;6.252;2022-12-07T13:15:48;10.00;;;3.03;;
37431;SDS011;23292;51.300;6.252;2022-12-07T13:18:41;9.90;;;3.20;;
37431;SDS011;23292;51.300;6.252;2022-12-07T13:28:49;10.77;;;2.92;;
37431;SDS011;23292;51.300;6.252;2022-12-07T13:33:57;10.95;;;3.05;;
37431;SDS011;23292;51.300;6.252;2022-12-07T13:36:26;10.57;;;3.78;;
37431;SDS011;23292;51.300;6.252;2022-12-07T13:38:58;8.35;;;2.97;;
37431;SDS011;23292;51.300;6.252;2022-12-07T13:41:26;9.27;;;3.03;;
37431;SDS011;23292;51.300;6.252;2022-12-07T13:46:33;13.20;;;3.13;;
37431;SDS011;23292;51.300;6.252;2022-12-07T13:49:15;10.68;;;2.90;;
37431;SDS011;23292;51.300;6.252;2022-12-07T13:51:49;18.10;;;3.28;;
37431;SDS011;23292;51.300;6.252;2022-12-07T13:54:16;19.02;;;4.28;;
37431;SDS011;23292;51.300;6.252;2022-12-07T13:56:44;11.32;;;3.03;;
37431;SDS011;23292;51.300;6.252;2022-12-07T13:59:18;12.88;;;3.40;;
37431;SDS011;23292;51.300;6.252;2022-12-07T14:01:48;15.80;;;3.53;;
37431;SDS011;23292;51.300;6.252;2022-12-07T14:04:35;11.15;;;3.10;;
37431;SDS011;23292;51.300;6.252;2022-12-07T14:10:27;7.57;;;3.13;;
37431;SDS011;23292;51.300;6.252;2022-12-07T14:13:01;10.02;;;3.00;;
37431;SDS011;23292;51.300;6.252;2022-12-07T14:15:33;6.80;;;2.95;;
37431;SDS011;23292;51.300;6.252;2022-12-07T14:18:01;15.30;;;3.45;;
37431;SDS011;23292;51.300;6.252;2022-12-07T14:23:03;10.10;;;3.03;;
37431;SDS011;23292;51.300;6.252;2022-12-07T14:25:46;10.45;;;3.42;;
37431;SDS011;23292;51.300;6.252;2022-12-07T14:30:57;9.40;;;2.88;;
37431;SDS011;23292;51.300;6.252;2022-12-07T14:33:25;8.07;;;2.40;;
37431;SDS011;23292;51.300;6.252;2022-12-07T14:35:52;4.60;;;2.25;;
37431;SDS011;23292;51.300;6.252;2022-12-07T14:38:21;7.95;;;2.10;;
37431;SDS011;23292;51.300;6.252;2022-12-07T14:40:48;6.82;;;2.10;;
37431;SDS011;23292;51.300;6.252;2022-12-07T14:43:16;7.85;;;1.85;;
37431;SDS011;23292;51.300;6.252;2022-12-07T14:45:44;8.50;;;2.20;;
37431;SDS011;23292;51.300;6.252;2022-12-07T14:48:11;7.20;;;1.85;;
37431;SDS011;23292;51.300;6.252;2022-12-07T14:50:59;6.70;;;2.17;;
37431;SDS011;23292;51.300;6.252;2022-12-07T14:53:47;9.77;;;2.70;;
37431;SDS011;23292;51.300;6.252;2022-12-07T14:56:22;10.80;;;2.47;;
37431;SDS011;23292;51.300;6.252;2022-12-07T14:58:50;9.95;;;3.15;;
37431;SDS011;23292;51.300;6.252;2022-12-07T15:01:17;13.80;;;3.83;;
37431;SDS011;23292;51.300;6.252;2022-12-07T15:03:43;14.18;;;3.30;;
37431;SDS011;23292;51.300;6.252;2022-12-07T15:06:13;12.18;;;4.97;;
37431;SDS011;23292;51.300;6.252;2022-12-07T15:08:41;10.40;;;3.42;;
37431;SDS011;23292;51.300;6.252;2022-12-07T15:11:10;21.00;;;5.07;;
37431;SDS011;23292;51.300;6.252;2022-12-07T15:13:39;12.65;;;5.07;;
37431;SDS011;23292;51.300;6.252;2022-12-07T15:16:24;10.18;;;3.83;;
37431;SDS011;23292;51.300;6.252;2022-12-07T15:18:51;10.05;;;4.05;;
37431;SDS011;23292;51.300;6.252;2022-12-07T15:21:38;17.55;;;4.10;;
37431;SDS011;23292;51.300;6.252;2022-12-07T15:24:05;13.35;;;4.55;;
37431;SDS011;23292;51.300;6.252;2022-12-07T15:26:32;10.32;;;4.70;;
37431;SDS011;23292;51.300;6.252;2022-12-07T15:28:59;14.55;;;4.63;;
37431;SDS011;23292;51.300;6.252;2022-12-07T15:31:26;11.77;;;4.47;;
37431;SDS011;23292;51.300;6.252;2022-12-07T15:34:12;12.20;;;4.70;;
37431;SDS011;23292;51.300;6.252;2022-12-07T15:36:39;10.88;;;4.88;;
37431;SDS011;23292;51.300;6.252;2022-12-07T15:39:06;9.30;;;4.35;;
37431;SDS011;23292;51.300;6.252;2022-12-07T15:41:40;9.32;;;5.15;;
37431;SDS011;23292;51.300;6.252;2022-12-07T15:44:09;11.07;;;4.78;;
37431;SDS011;23292;51.300;6.252;2022-12-07T15:46:56;15.77;;;5.85;;
37431;SDS011;23292;51.300;6.252;2022-12-07T15:49:23;13.18;;;6.07;;
37431;SDS011;23292;51.300;6.252;2022-12-07T15:51:50;15.00;;;5.88;;
37431;SDS011;23292;51.300;6.252;2022-12-07T15:54:20;16.02;;;5.32;;
37431;SDS011;23292;51.300;6.252;2022-12-07T15:56:49;14.63;;;5.88;;
37431;SDS011;23292;51.300;6.252;2022-12-07T15:59:16;14.18;;;5.47;;
37431;SDS011;23292;51.300;6.252;2022-12-07T16:01:43;15.07;;;5.18;;
37431;SDS011;23292;51.300;6.252;2022-12-07T16:04:11;11.98;;;5.20;;
37431;SDS011;23292;51.300;6.252;2022-12-07T16:06:38;16.23;;;6.50;;
37431;SDS011;23292;51.300;6.252;2022-12-07T16:09:05;13.75;;;6.38;;
37431;SDS011;23292;51.300;6.252;2022-12-07T16:11:32;10.82;;;5.65;;
37431;SDS011;23292;51.300;6.252;2022-12-07T16:13:59;14.65;;;6.93;;
37431;SDS011;23292;51.300;6.252;2022-12-07T16:16:26;14.60;;;6.40;;
37431;SDS011;23292;51.300;6.252;2022-12-07T16:18:54;12.70;;;6.45;;
37431;SDS011;23292;51.300;6.252;2022-12-07T16:21:21;11.98;;;6.68;;
37431;SDS011;23292;51.300;6.252;2022-12-07T16:23:51;15.70;;;7.53;;
37431;SDS011;23292;51.300;6.252;2022-12-07T16:26:18;14.52;;;7.28;;
37431;SDS011;23292;51.300;6.252;2022-12-07T16:28:50;16.92;;;7.70;;
37431;SDS011;23292;51.300;6.252;2022-12-07T16:31:19;15.63;;;6.80;;
37431;SDS011;23292;51.300;6.252;2022-12-07T16:33:49;15.43;;;7.07;;
37431;SDS011;23292;51.300;6.252;2022-12-07T16:36:16;14.40;;;6.82;;
37431;SDS011;23292;51.300;6.252;2022-12-07T16:39:03;15.15;;;6.85;;
37431;SDS011;23292;51.300;6.252;2022-12-07T16:41:31;12.02;;;6.30;;
37431;SDS011;23292;51.300;6.252;2022-12-07T16:44:01;13.40;;;6.55;;
37431;SDS011;23292;51.300;6.252;2022-12-07T16:46:30;15.32;;;6.53;;
37431;SDS011;23292;51.300;6.252;2022-12-07T16:48:59;11.32;;;6.38;;
37431;SDS011;23292;51.300;6.252;2022-12-07T16:51:26;16.08;;;7.18;;
37431;SDS011;23292;51.300;6.252;2022-12-07T16:53:53;13.52;;;7.55;;
37431;SDS011;23292;51.300;6.252;2022-12-07T16:56:20;16.10;;;8.07;;
37431;SDS011;23292;51.300;6.252;2022-12-07T16:58:47;14.25;;;7.18;;
37431;SDS011;23292;51.300;6.252;2022-12-07T17:01:16;15.10;;;7.30;;
37431;SDS011;23292;51.300;6.252;2022-12-07T17:03:45;14.73;;;8.07;;
37431;SDS011;23292;51.300;6.252;2022-12-07T17:06:16;15.73;;;7.30;;
37431;SDS011;23292;51.300;6.252;2022-12-07T17:08:48;16.92;;;7.18;;
37431;SDS011;23292;51.300;6.252;2022-12-07T17:11:22;15.02;;;7.90;;